createdAt,value
2024-02-24T00:01:20.026Z,39.85
2024-02-24T00:03:47.204Z,33.67
2024-02-24T00:06:14.055Z,34.45
2024-02-24T00:08:40.972Z,36.38
2024-02-24T00:11:07.939Z,36.83
2024-02-24T00:13:35.135Z,38.45
2024-02-24T00:16:06.345Z,36.88
2024-02-24T00:18:33.215Z,37.38
2024-02-24T00:20:59.998Z,35.95
2024-02-24T00:23:26.850Z,34.83
2024-02-24T00:25:53.666Z,36.50
2024-02-24T00:28:20.468Z,35.05
2024-02-24T00:30:47.353Z,35.78
2024-02-24T00:33:14.082Z,34.47
2024-02-24T00:35:41.554Z,38.85
2024-02-24T00:38:08.602Z,39.67
2024-02-24T00:40:35.362Z,39.38
2024-02-24T00:43:02.091Z,36.88
2024-02-24T00:45:28.919Z,37.88
2024-02-24T00:47:55.770Z,34.42
2024-02-24T00:50:24.515Z,39.08
2024-02-24T00:52:51.319Z,34.17
2024-02-24T00:55:18.053Z,38.08
2024-02-24T00:57:44.775Z,36.80
2024-02-24T01:00:12.258Z,36.13
2024-02-24T01:02:39.137Z,35.05
2024-02-24T01:05:06.681Z,36.75
2024-02-24T01:07:33.433Z,35.92
2024-02-24T01:10:00.247Z,38.67
2024-02-24T01:12:26.994Z,38.35
2024-02-24T01:14:57.980Z,37.22
2024-02-24T01:17:25.273Z,37.22
2024-02-24T01:19:52.123Z,36.70
2024-02-24T01:22:18.950Z,37.05
2024-02-24T01:24:45.669Z,34.78
2024-02-24T01:27:12.479Z,35.30
2024-02-24T01:29:39.264Z,34.97
2024-02-24T01:32:06.625Z,36.25
2024-02-24T01:34:33.410Z,34.25
2024-02-24T01:37:00.254Z,35.70
2024-02-24T01:39:26.987Z,36.38
2024-02-24T01:41:53.873Z,35.33
2024-02-24T01:44:20.669Z,37.10
2024-02-24T01:46:48.027Z,35.35
2024-02-24T01:49:15.962Z,36.38
2024-02-24T01:51:43.457Z,37.80
2024-02-24T01:54:10.766Z,36.88
2024-02-24T01:56:39.138Z,35.08
2024-02-24T01:59:06.929Z,36.65
2024-02-24T02:03:08.664Z,41.33
2024-02-24T02:05:35.818Z,34.40
2024-02-24T02:08:03.231Z,37.65
2024-02-24T02:10:52.548Z,34.55
2024-02-24T02:13:20.765Z,34.72
2024-02-24T02:15:58.462Z,36.70
2024-02-24T02:18:25.545Z,37.78
2024-02-24T02:20:53.121Z,35.70
2024-02-24T02:23:20.427Z,35.28
2024-02-24T02:25:47.270Z,34.53
2024-02-24T02:28:14.135Z,33.38
2024-02-24T02:30:40.844Z,35.03
2024-02-24T02:33:09.978Z,36.90
2024-02-24T02:35:37.591Z,35.58
2024-02-24T02:38:09.061Z,34.30
2024-02-24T02:40:36.704Z,33.08
2024-02-24T02:43:03.606Z,33.67
2024-02-24T02:45:30.329Z,33.85
2024-02-24T02:47:57.167Z,34.38
2024-02-24T02:50:24.071Z,34.67
2024-02-24T02:52:50.958Z,32.25
2024-02-24T02:55:19.040Z,33.70
2024-02-24T02:57:46.090Z,34.92
2024-02-24T03:00:13.627Z,33.05
2024-02-24T03:02:40.574Z,33.95
2024-02-24T03:05:08.925Z,31.80
2024-02-24T03:07:35.868Z,31.08
2024-02-24T03:10:04.339Z,32.00
2024-02-24T03:12:31.462Z,32.92
2024-02-24T03:14:59.960Z,33.33
2024-02-24T03:17:27.089Z,31.00
2024-02-24T03:19:53.872Z,34.95
2024-02-24T03:22:20.577Z,32.85
2024-02-24T03:24:47.390Z,35.78
2024-02-24T03:27:14.929Z,34.88
2024-02-24T03:29:41.820Z,35.05
2024-02-24T03:32:08.832Z,34.88
2024-02-24T03:34:35.660Z,33.40
2024-02-24T03:37:02.459Z,35.85
2024-02-24T03:39:29.220Z,34.17
2024-02-24T03:41:56.092Z,33.78
2024-02-24T03:44:22.926Z,37.13
2024-02-24T03:46:49.764Z,34.00
2024-02-24T03:49:16.596Z,32.67
2024-02-24T03:51:43.469Z,32.58
2024-02-24T03:54:11.814Z,33.30
2024-02-24T03:56:38.705Z,33.63
2024-02-24T03:59:05.830Z,35.35
2024-02-24T04:01:32.851Z,32.45
2024-02-24T04:03:59.705Z,33.50
2024-02-24T04:06:26.585Z,30.77
2024-02-24T04:08:53.441Z,33.63
2024-02-24T04:11:20.561Z,33.28
2024-02-24T04:13:47.430Z,34.05
2024-02-24T04:16:14.273Z,32.22
2024-02-24T04:18:41.137Z,37.78
2024-02-24T04:21:07.941Z,32.20
2024-02-24T04:23:34.841Z,35.22
2024-02-24T04:26:01.691Z,33.70
2024-02-24T04:28:28.458Z,34.00
2024-02-24T04:30:55.280Z,34.40
2024-02-24T04:33:22.168Z,35.38
2024-02-24T04:35:50.561Z,33.25
2024-02-24T04:38:17.472Z,37.38
2024-02-24T04:40:44.312Z,33.33
2024-02-24T04:43:11.117Z,34.03
2024-02-24T04:45:38.035Z,32.47
2024-02-24T04:48:05.311Z,34.45
2024-02-24T04:50:32.138Z,33.67
2024-02-24T04:52:58.889Z,37.97
2024-02-24T04:55:25.937Z,34.13
2024-02-24T04:57:52.682Z,35.25
2024-02-24T05:00:19.790Z,33.28
2024-02-24T05:02:46.801Z,35.95
2024-02-24T05:05:14.030Z,34.25
2024-02-24T05:07:41.040Z,36.97
2024-02-24T05:10:08.794Z,36.00
2024-02-24T05:12:37.019Z,38.42
2024-02-24T05:15:05.912Z,38.30
2024-02-24T05:17:32.858Z,36.00
2024-02-24T05:19:59.644Z,36.80
2024-02-24T05:22:26.482Z,35.58
2024-02-24T05:24:53.403Z,34.13
2024-02-24T05:27:21.000Z,36.50
2024-02-24T05:29:48.326Z,34.78
2024-02-24T05:32:17.766Z,32.67
2024-02-24T05:34:44.973Z,35.63
2024-02-24T05:37:11.929Z,35.83
2024-02-24T05:39:39.581Z,36.53
2024-02-24T05:42:09.413Z,35.63
2024-02-24T05:44:36.157Z,35.28
2024-02-24T05:47:03.040Z,35.05
2024-02-24T05:49:29.851Z,34.67
2024-02-24T05:51:56.642Z,35.88
2024-02-24T05:54:24.214Z,32.67
2024-02-24T05:56:51.269Z,32.28
2024-02-24T05:59:19.479Z,33.60
2024-02-24T06:01:46.290Z,35.58
2024-02-24T06:04:13.842Z,33.70
2024-02-24T06:06:40.818Z,33.47
2024-02-24T06:09:07.624Z,31.15
2024-02-24T06:11:34.478Z,36.67
2024-02-24T06:14:01.507Z,32.75
2024-02-24T06:16:28.256Z,33.63
2024-02-24T06:18:55.217Z,35.92
2024-02-24T06:21:22.024Z,32.88
2024-02-24T06:23:48.881Z,34.38
2024-02-24T06:26:16.252Z,33.58
2024-02-24T06:28:43.392Z,34.35
2024-02-24T06:31:10.356Z,35.38
2024-02-24T06:33:37.377Z,34.58
2024-02-24T06:36:04.607Z,37.50
2024-02-24T06:38:31.727Z,32.20
2024-02-24T06:40:58.488Z,33.70
2024-02-24T06:43:25.227Z,33.17
2024-02-24T06:45:52.154Z,33.33
2024-02-24T06:48:19.094Z,33.08
2024-02-24T06:50:46.259Z,33.55
2024-02-24T06:53:13.939Z,33.50
2024-02-24T06:55:41.423Z,33.75
2024-02-24T06:58:08.774Z,35.33
2024-02-24T07:00:36.653Z,36.55
2024-02-24T07:03:04.383Z,36.72
2024-02-24T07:05:32.884Z,33.20
2024-02-24T07:07:59.801Z,37.08
2024-02-24T07:10:26.626Z,37.05
2024-02-24T07:12:53.550Z,37.85
2024-02-24T07:15:20.882Z,36.15
2024-02-24T07:17:47.808Z,37.50
2024-02-24T07:20:14.823Z,36.85
2024-02-24T07:22:43.083Z,37.38
2024-02-24T07:25:10.013Z,32.88
2024-02-24T07:27:36.811Z,36.97
2024-02-24T07:30:06.129Z,36.40
2024-02-24T07:32:34.344Z,39.03
2024-02-24T07:35:02.538Z,36.25
2024-02-24T07:37:29.244Z,33.65
2024-02-24T07:39:55.940Z,35.83
2024-02-24T07:42:22.848Z,36.90
2024-02-24T07:44:49.675Z,35.20
2024-02-24T07:47:16.595Z,32.33
2024-02-24T07:49:43.443Z,33.65
2024-02-24T07:52:10.385Z,31.40
2024-02-24T07:54:37.327Z,35.03
2024-02-24T07:57:04.498Z,33.75
2024-02-24T07:59:31.338Z,33.35
2024-02-24T08:01:58.047Z,35.72
2024-02-24T08:04:24.762Z,34.20
2024-02-24T08:06:51.626Z,32.47
2024-02-24T08:09:18.483Z,33.70
2024-02-24T08:11:45.603Z,34.42
2024-02-24T08:14:12.879Z,35.20
2024-02-24T08:16:40.443Z,35.53
2024-02-24T08:19:08.090Z,34.47
2024-02-24T08:21:38.703Z,36.55
2024-02-24T08:24:09.650Z,37.90
2024-02-24T08:26:40.332Z,35.95
2024-02-24T08:29:07.528Z,33.47
2024-02-24T08:31:35.864Z,36.92
2024-02-24T08:34:03.497Z,33.85
2024-02-24T08:36:30.605Z,34.28
2024-02-24T08:38:59.528Z,39.60
2024-02-24T08:41:27.387Z,36.50
2024-02-24T08:43:54.578Z,34.97
2024-02-24T08:46:21.563Z,31.98
2024-02-24T08:48:48.532Z,32.15
2024-02-24T08:51:15.330Z,33.72
2024-02-24T08:53:43.404Z,34.58
2024-02-24T08:56:10.468Z,32.60
2024-02-24T08:58:37.597Z,33.15
2024-02-24T09:01:04.814Z,32.25
2024-02-24T09:03:31.627Z,32.40
2024-02-24T09:05:58.554Z,32.53
2024-02-24T09:08:25.450Z,36.55
2024-02-24T09:10:53.811Z,31.85
2024-02-24T09:13:20.734Z,33.30
2024-02-24T09:15:47.692Z,34.53
2024-02-24T09:18:14.509Z,33.55
2024-02-24T09:20:41.591Z,31.95
2024-02-24T09:23:08.462Z,31.25
2024-02-24T09:25:35.242Z,30.33
2024-02-24T09:28:02.077Z,32.72
2024-02-24T09:30:28.851Z,34.30
2024-02-24T09:32:55.849Z,34.85
2024-02-24T09:35:23.021Z,32.60
2024-02-24T09:37:49.849Z,31.10
2024-02-24T09:40:17.196Z,31.65
2024-02-24T09:42:44.320Z,31.83
2024-02-24T09:45:15.484Z,33.22
2024-02-24T09:47:45.874Z,34.85
2024-02-24T09:50:13.223Z,32.00
2024-02-24T09:52:41.127Z,31.20
2024-02-24T09:55:08.789Z,33.00
2024-02-24T09:57:38.728Z,32.17
2024-02-24T10:00:06.981Z,32.10
2024-02-24T10:02:39.733Z,35.15
2024-02-24T10:05:06.859Z,30.52
2024-02-24T10:07:35.757Z,31.85
2024-02-24T10:10:02.668Z,32.20
2024-02-24T10:12:31.119Z,38.38
2024-02-24T10:14:57.974Z,35.03
2024-02-24T10:17:24.889Z,36.72
2024-02-24T10:19:51.838Z,34.60
2024-02-24T10:22:18.962Z,37.70
2024-02-24T10:24:45.897Z,35.45
2024-02-24T10:27:13.971Z,37.67
2024-02-24T10:29:41.422Z,35.13
2024-02-24T10:32:09.080Z,36.53
2024-02-24T10:34:36.666Z,34.15
2024-02-24T10:37:04.981Z,34.45
2024-02-24T10:39:35.440Z,33.65
2024-02-24T10:42:06.152Z,32.80
2024-02-24T10:44:34.861Z,32.05
2024-02-24T10:47:03.034Z,35.13
2024-02-24T10:49:30.484Z,31.73
2024-02-24T10:51:57.793Z,34.25
2024-02-24T10:54:31.483Z,34.72
2024-02-24T10:57:01.009Z,35.15
2024-02-24T10:59:29.699Z,35.25
2024-02-24T11:02:03.962Z,33.75
2024-02-24T11:07:02.473Z,29.20
2024-02-24T11:09:39.015Z,33.38
2024-02-24T11:12:08.893Z,31.17
2024-02-24T11:14:40.176Z,34.35
2024-02-24T11:17:07.498Z,36.45
2024-02-24T11:19:45.677Z,33.45
2024-02-24T11:22:26.036Z,33.63
2024-02-24T11:25:05.088Z,33.58
2024-02-24T11:27:35.846Z,33.72
2024-02-24T11:30:39.743Z,33.95
2024-02-24T11:33:32.804Z,32.60
2024-02-24T11:36:01.692Z,35.55
2024-02-24T11:38:28.814Z,34.88
2024-02-24T11:40:56.705Z,33.22
2024-02-24T11:43:23.442Z,33.05
2024-02-24T11:45:53.573Z,32.60
2024-02-24T11:48:21.602Z,33.65
2024-02-24T11:50:49.702Z,36.72
2024-02-24T11:53:18.539Z,37.22
2024-02-24T11:55:48.576Z,37.58
2024-02-24T11:58:16.389Z,36.00
2024-02-24T12:00:43.370Z,38.60
2024-02-24T12:03:15.345Z,37.33
2024-02-24T12:05:43.592Z,37.88
2024-02-24T12:08:20.891Z,42.45
2024-02-24T12:10:47.719Z,39.17
2024-02-24T12:13:15.611Z,38.35
2024-02-24T12:15:46.980Z,38.10
2024-02-24T12:18:14.291Z,39.28
2024-02-24T12:20:43.023Z,39.92
2024-02-24T12:23:11.699Z,36.00
2024-02-24T12:25:38.615Z,37.97
2024-02-24T12:28:06.246Z,40.95
2024-02-24T12:30:43.670Z,38.35
2024-02-24T12:33:17.814Z,36.72
2024-02-24T12:35:49.089Z,38.53
2024-02-24T12:38:19.565Z,37.67
2024-02-24T12:40:46.703Z,39.90
2024-02-24T12:43:13.492Z,38.47
2024-02-24T12:45:40.408Z,39.88
2024-02-24T12:48:08.541Z,39.20
2024-02-24T12:50:35.919Z,38.10
2024-02-24T12:53:06.373Z,38.30
2024-02-24T12:55:33.105Z,39.45
2024-02-24T12:57:59.844Z,38.63
2024-02-24T13:00:26.663Z,38.08
2024-02-24T13:02:57.039Z,37.08
2024-02-24T13:05:24.482Z,37.83
2024-02-24T13:07:53.083Z,37.50
2024-02-24T13:10:21.330Z,39.25
2024-02-24T13:12:48.389Z,38.50
2024-02-24T13:15:15.409Z,38.63
2024-02-24T13:17:42.180Z,38.17
2024-02-24T13:20:09.689Z,40.08
2024-02-24T13:22:42.050Z,39.92
2024-02-24T13:25:12.308Z,38.38
2024-02-24T13:27:42.100Z,38.63
2024-02-24T13:30:09.577Z,37.78
2024-02-24T13:32:36.465Z,39.67
2024-02-24T13:35:03.807Z,43.22
2024-02-24T13:37:31.283Z,37.65
2024-02-24T13:39:58.026Z,38.55
2024-02-24T13:42:24.854Z,39.53
2024-02-24T13:44:51.648Z,41.55
2024-02-24T13:47:19.259Z,37.55
2024-02-24T13:49:46.271Z,39.28
2024-02-24T13:52:13.055Z,38.03
2024-02-24T13:54:39.802Z,40.42
2024-02-24T13:57:06.681Z,37.35
2024-02-24T13:59:33.631Z,37.90
2024-02-24T14:02:00.581Z,38.00
2024-02-24T14:04:27.601Z,40.03
2024-02-24T14:06:54.504Z,35.00
2024-02-24T14:09:23.346Z,39.80
2024-02-24T14:11:50.224Z,38.90
2024-02-24T14:14:17.181Z,38.28
2024-02-24T14:16:46.323Z,39.47
2024-02-24T14:19:13.962Z,38.97
2024-02-24T14:21:42.845Z,40.67
2024-02-24T14:24:09.819Z,36.97
2024-02-24T14:26:36.659Z,38.60
2024-02-24T14:29:03.646Z,36.97
2024-02-24T14:31:32.073Z,40.15
2024-02-24T14:34:00.006Z,39.67
2024-02-24T14:36:27.026Z,36.45
2024-02-24T14:38:53.985Z,35.63
2024-02-24T14:41:20.882Z,38.92
2024-02-24T14:43:47.760Z,40.53
2024-02-24T14:46:14.645Z,40.38
2024-02-24T14:48:42.727Z,39.63
2024-02-24T14:51:09.634Z,37.63
2024-02-24T14:53:36.547Z,39.70
2024-02-24T14:56:03.804Z,39.40
2024-02-24T14:58:30.515Z,40.85
2024-02-24T15:00:57.337Z,37.50
2024-02-24T15:03:24.136Z,36.90
2024-02-24T15:05:50.990Z,35.65
2024-02-24T15:08:17.873Z,43.10
2024-02-24T15:10:44.704Z,38.00
2024-02-24T15:13:19.522Z,39.05
2024-02-24T15:15:49.962Z,39.08
2024-02-24T15:18:17.009Z,38.25
2024-02-24T15:20:44.772Z,37.83
2024-02-24T15:23:13.749Z,35.70
2024-02-24T15:25:40.589Z,37.08
2024-02-24T15:28:07.726Z,38.33
2024-02-24T15:30:34.498Z,35.63
2024-02-24T15:33:02.423Z,38.38
2024-02-24T15:35:29.452Z,35.22
2024-02-24T15:37:56.436Z,35.20
2024-02-24T15:40:23.239Z,36.42
2024-02-24T15:42:50.001Z,35.05
2024-02-24T15:45:16.946Z,36.78
2024-02-24T15:47:43.874Z,36.90
2024-02-24T15:50:10.987Z,35.63
2024-02-24T15:52:37.859Z,42.67
2024-02-24T15:55:04.993Z,34.95
2024-02-24T15:57:31.802Z,37.47
2024-02-24T15:59:58.589Z,36.72
2024-02-24T16:02:25.473Z,36.55
2024-02-24T16:04:52.319Z,35.78
2024-02-24T16:07:19.308Z,34.85
2024-02-24T16:09:46.280Z,36.05
2024-02-24T16:12:13.012Z,41.38
2024-02-24T16:14:39.911Z,39.78
2024-02-24T16:17:06.682Z,39.42
2024-02-24T16:19:33.501Z,38.45
2024-02-24T16:22:00.240Z,37.75
2024-02-24T16:24:29.381Z,36.92
2024-02-24T16:26:57.696Z,40.97
2024-02-24T16:29:24.603Z,39.28
2024-02-24T16:31:51.380Z,38.58
2024-02-24T16:34:18.324Z,37.20
2024-02-24T16:36:45.180Z,40.17
2024-02-24T16:39:12.638Z,38.65
2024-02-24T16:41:40.248Z,40.70
2024-02-24T16:44:09.913Z,42.53
2024-02-24T16:46:43.562Z,40.30
2024-02-24T16:49:10.952Z,37.85
2024-02-24T16:51:37.754Z,43.35
2024-02-24T16:54:04.621Z,38.13
2024-02-24T16:56:32.699Z,38.92
2024-02-24T16:59:00.663Z,36.85
2024-02-24T17:01:27.423Z,40.60
2024-02-24T17:03:54.179Z,40.22
2024-02-24T17:06:22.101Z,38.28
2024-02-24T17:08:49.088Z,41.78
2024-02-24T17:11:22.166Z,44.25
2024-02-24T17:13:48.968Z,42.75
2024-02-24T17:16:15.891Z,38.92
2024-02-24T17:18:42.937Z,46.72
2024-02-24T17:21:10.652Z,40.80
2024-02-24T17:23:39.572Z,42.88
2024-02-24T17:26:06.369Z,39.38
2024-02-24T17:28:33.133Z,42.03
2024-02-24T17:31:02.349Z,43.97
2024-02-24T17:33:29.588Z,41.53
2024-02-24T17:35:56.416Z,42.55
2024-02-24T17:38:25.005Z,42.67
2024-02-24T17:40:51.848Z,45.05
2024-02-24T17:43:18.646Z,42.22
2024-02-24T17:45:45.429Z,48.75
2024-02-24T17:48:12.485Z,44.70
2024-02-24T17:50:39.579Z,51.35
2024-02-24T17:53:06.484Z,43.05
2024-02-24T17:55:33.395Z,42.75
2024-02-24T17:58:00.117Z,39.60
2024-02-24T18:00:28.389Z,41.80
2024-02-24T18:02:55.578Z,41.33
2024-02-24T18:05:22.700Z,43.20
2024-02-24T18:07:49.813Z,40.38
2024-02-24T18:10:17.160Z,41.83
2024-02-24T18:12:44.041Z,42.80
2024-02-24T18:15:11.716Z,42.80
2024-02-24T18:17:38.686Z,44.33
2024-02-24T18:20:09.587Z,43.25
2024-02-24T18:22:38.031Z,41.47
2024-02-24T18:25:07.580Z,42.40
2024-02-24T18:27:34.478Z,40.53
2024-02-24T18:30:04.473Z,40.53
2024-02-24T18:32:32.784Z,44.08
2024-02-24T18:34:59.667Z,43.20
2024-02-24T18:37:26.546Z,43.63
2024-02-24T18:39:55.817Z,44.20
2024-02-24T18:42:23.648Z,43.08
2024-02-24T18:44:50.739Z,41.58
2024-02-24T18:47:17.610Z,42.30
2024-02-24T18:49:48.095Z,43.03
2024-02-24T18:52:15.093Z,40.78
2024-02-24T18:54:42.074Z,44.70
2024-02-24T18:57:08.962Z,42.28
2024-02-24T18:59:35.990Z,45.08
2024-02-24T19:02:02.843Z,39.20
2024-02-24T19:04:29.750Z,37.72
2024-02-24T19:06:58.182Z,38.78
2024-02-24T19:09:25.397Z,41.75
2024-02-24T19:11:53.995Z,43.28
2024-02-24T19:14:21.511Z,41.90
2024-02-24T19:16:49.003Z,40.55
2024-02-24T19:19:16.385Z,39.95
2024-02-24T19:21:43.415Z,39.15
2024-02-24T19:24:13.117Z,41.28
2024-02-24T19:26:40.687Z,38.03
2024-02-24T19:29:10.805Z,37.75
2024-02-24T19:31:40.899Z,42.63
2024-02-24T19:34:10.695Z,39.65
2024-02-24T19:36:37.684Z,38.97
2024-02-24T19:39:13.670Z,40.58
2024-02-24T19:41:45.845Z,38.53
2024-02-24T19:44:12.713Z,42.22
2024-02-24T19:46:39.678Z,41.58
2024-02-24T19:49:09.510Z,42.58
2024-02-24T19:51:36.859Z,41.72
2024-02-24T19:54:03.915Z,41.15
2024-02-24T19:56:32.622Z,38.67
2024-02-24T19:58:59.674Z,38.58
2024-02-24T20:01:26.513Z,42.30
2024-02-24T20:03:53.405Z,40.22
2024-02-24T20:06:20.422Z,40.30
2024-02-24T20:08:47.310Z,39.28
2024-02-24T20:11:14.313Z,37.38
2024-02-24T20:13:41.081Z,36.55
2024-02-24T20:16:08.037Z,39.10
2024-02-24T20:18:35.071Z,39.08
2024-02-24T20:21:02.118Z,37.83
2024-02-24T20:23:29.013Z,36.40
2024-02-24T20:25:56.029Z,36.88
2024-02-24T20:28:22.900Z,38.00
2024-02-24T20:30:49.814Z,38.40
2024-02-24T20:33:16.903Z,36.13
2024-02-24T20:35:43.988Z,40.90
2024-02-24T20:38:10.796Z,35.05
2024-02-24T20:40:38.161Z,37.72
2024-02-24T20:43:05.172Z,37.88
2024-02-24T20:45:31.985Z,38.92
2024-02-24T20:47:58.898Z,35.45
2024-02-24T20:50:26.163Z,38.67
2024-02-24T20:52:53.024Z,35.80
2024-02-24T20:55:19.723Z,39.20
2024-02-24T20:57:47.581Z,38.25
2024-02-24T21:00:15.055Z,39.95
2024-02-24T21:02:42.101Z,34.67
2024-02-24T21:05:11.633Z,37.30
2024-02-24T21:07:38.355Z,35.60
2024-02-24T21:10:05.562Z,35.35
2024-02-24T21:12:32.324Z,37.72
2024-02-24T21:14:59.307Z,37.67
2024-02-24T21:17:26.235Z,36.65
2024-02-24T21:19:53.263Z,38.05
2024-02-24T21:22:20.150Z,37.15
2024-02-24T21:24:46.907Z,39.35
2024-02-24T21:27:13.714Z,37.17
2024-02-24T21:29:41.404Z,37.45
2024-02-24T21:32:08.337Z,36.58
2024-02-24T21:34:35.338Z,33.30
2024-02-24T21:37:02.045Z,35.38
2024-02-24T21:39:31.582Z,34.03
2024-02-24T21:41:59.007Z,37.85
2024-02-24T21:44:26.029Z,34.92
2024-02-24T21:46:52.741Z,35.15
2024-02-24T21:49:19.599Z,34.78
2024-02-24T21:51:46.377Z,35.78
2024-02-24T21:54:15.679Z,34.90
2024-02-24T21:56:47.554Z,38.58
2024-02-24T21:59:14.351Z,36.40
2024-02-24T22:01:41.027Z,33.20
2024-02-24T22:04:07.874Z,35.83
2024-02-24T22:06:35.502Z,38.38
2024-02-24T22:09:02.580Z,35.58
2024-02-24T22:11:32.932Z,37.22
2024-02-24T22:13:59.802Z,37.20
2024-02-24T22:16:27.353Z,35.00
2024-02-24T22:18:54.533Z,36.97
2024-02-24T22:21:22.210Z,37.85
2024-02-24T22:23:51.558Z,52.92
2024-02-24T22:26:19.035Z,36.90
2024-02-24T22:28:46.124Z,33.83
2024-02-24T22:31:12.934Z,35.75
2024-02-24T22:33:40.039Z,31.95
2024-02-24T22:36:07.401Z,34.78
2024-02-24T22:38:34.313Z,34.38
2024-02-24T22:41:09.379Z,36.17
2024-02-24T22:43:36.746Z,34.55
2024-02-24T22:46:03.705Z,37.25
2024-02-24T22:48:31.256Z,35.40
2024-02-24T22:50:58.282Z,37.17
2024-02-24T22:53:25.166Z,35.97
2024-02-24T22:55:51.867Z,36.40
2024-02-24T22:58:18.580Z,35.08
2024-02-24T23:00:45.846Z,36.33
2024-02-24T23:03:12.738Z,37.92
2024-02-24T23:05:39.523Z,35.78
2024-02-24T23:08:06.506Z,34.35
2024-02-24T23:10:33.572Z,34.17
2024-02-24T23:13:00.370Z,34.97
2024-02-24T23:15:27.380Z,35.20
2024-02-24T23:17:54.306Z,36.05
2024-02-24T23:20:21.190Z,35.70
2024-02-24T23:22:47.978Z,34.90
2024-02-24T23:25:17.857Z,35.65
2024-02-24T23:27:45.061Z,37.35
2024-02-24T23:30:12.478Z,37.88
2024-02-24T23:32:39.325Z,39.33
2024-02-24T23:35:06.351Z,38.25
2024-02-24T23:37:33.085Z,36.55
2024-02-24T23:39:59.911Z,37.85
2024-02-24T23:42:26.716Z,37.95
2024-02-24T23:44:53.648Z,38.25
2024-02-24T23:47:20.556Z,35.75
2024-02-24T23:49:47.417Z,40.95
2024-02-24T23:52:14.246Z,36.47
2024-02-24T23:54:41.928Z,39.28
2024-02-24T23:57:08.756Z,34.70
2024-02-24T23:59:35.594Z,36.55
